sensor_id;sensor_type;location;lat;lon;timestamp;temperature;humidity
25250;DHT22;13201;51.148;13.738;2023-05-16T00:00:14;13.40;99.90
25250;DHT22;13201;51.148;13.738;2023-05-16T00:02:40;13.40;99.90
25250;DHT22;13201;51.148;13.738;2023-05-16T00:05:06;13.40;99.90
25250;DHT22;13201;51.148;13.738;2023-05-16T00:07:33;13.50;99.90
25250;DHT22;13201;51.148;13.738;2023-05-16T00:09:59;13.40;99.90
25250;DHT22;13201;51.148;13.738;2023-05-16T00:12:25;13.40;99.90
25250;DHT22;13201;51.148;13.738;2023-05-16T00:14:51;13.30;99.90
25250;DHT22;13201;51.148;13.738;2023-05-16T00:17:18;13.30;99.90
25250;DHT22;13201;51.148;13.738;2023-05-16T00:19:45;13.30;99.90
25250;DHT22;13201;51.148;13.738;2023-05-16T00:22:14;13.20;99.90
25250;DHT22;13201;51.148;13.738;2023-05-16T00:24:40;13.10;99.90
25250;DHT22;13201;51.148;13.738;2023-05-16T00:27:06;13.10;99.90
25250;DHT22;13201;51.148;13.738;2023-05-16T00:29:35;13.10;99.90
25250;DHT22;13201;51.148;13.738;2023-05-16T00:32:00;13.10;99.90
25250;DHT22;13201;51.148;13.738;2023-05-16T00:34:26;13.10;99.90
25250;DHT22;13201;51.148;13.738;2023-05-16T00:36:52;12.90;99.90
25250;DHT22;13201;51.148;13.738;2023-05-16T00:39:18;12.90;99.90
25250;DHT22;13201;51.148;13.738;2023-05-16T00:41:45;12.90;99.90
25250;DHT22;13201;51.148;13.738;2023-05-16T00:44:10;12.80;99.90
25250;DHT22;13201;51.148;13.738;2023-05-16T00:46:36;12.80;99.90
25250;DHT22;13201;51.148;13.738;2023-05-16T00:49:02;12.60;99.90
25250;DHT22;13201;51.148;13.738;2023-05-16T00:51:28;12.50;99.90
25250;DHT22;13201;51.148;13.738;2023-05-16T00:53:55;12.60;99.90
25250;DHT22;13201;51.148;13.738;2023-05-16T00:56:21;12.40;99.90
25250;DHT22;13201;51.148;13.738;2023-05-16T00:58:48;12.40;99.90
25250;DHT22;13201;51.148;13.738;2023-05-16T01:01:15;12.40;99.90
25250;DHT22;13201;51.148;13.738;2023-05-16T01:03:41;12.40;99.90
25250;DHT22;13201;51.148;13.738;2023-05-16T01:30:19;11.50;99.90
25250;DHT22;13201;51.148;13.738;2023-05-16T01:32:45;11.50;99.90
25250;DHT22;13201;51.148;13.738;2023-05-16T01:35:14;11.60;99.90
25250;DHT22;13201;51.148;13.738;2023-05-16T01:37:48;11.70;99.90
25250;DHT22;13201;51.148;13.738;2023-05-16T01:40:30;11.80;99.90
25250;DHT22;13201;51.148;13.738;2023-05-16T01:42:59;11.90;99.90
25250;DHT22;13201;51.148;13.738;2023-05-16T01:45:30;11.90;99.90
25250;DHT22;13201;51.148;13.738;2023-05-16T01:48:18;11.90;99.90
25250;DHT22;13201;51.148;13.738;2023-05-16T01:50:51;12.10;99.90
25250;DHT22;13201;51.148;13.738;2023-05-16T01:53:24;12.20;99.90
25250;DHT22;13201;51.148;13.738;2023-05-16T01:55:51;12.20;99.90
25250;DHT22;13201;51.148;13.738;2023-05-16T01:58:22;12.20;99.90
25250;DHT22;13201;51.148;13.738;2023-05-16T02:00:48;12.30;99.90
25250;DHT22;13201;51.148;13.738;2023-05-16T02:03:13;12.30;99.90
25250;DHT22;13201;51.148;13.738;2023-05-16T02:05:39;12.20;99.90
25250;DHT22;13201;51.148;13.738;2023-05-16T02:08:05;12.30;99.90
25250;DHT22;13201;51.148;13.738;2023-05-16T02:10:31;12.30;99.90
25250;DHT22;13201;51.148;13.738;2023-05-16T02:12:57;12.30;99.90
25250;DHT22;13201;51.148;13.738;2023-05-16T02:15:22;12.30;99.90
25250;DHT22;13201;51.148;13.738;2023-05-16T02:17:48;12.30;99.90
25250;DHT22;13201;51.148;13.738;2023-05-16T02:20:14;12.20;99.90
25250;DHT22;13201;51.148;13.738;2023-05-16T02:22:40;12.20;99.90
25250;DHT22;13201;51.148;13.738;2023-05-16T02:25:08;12.20;99.90
25250;DHT22;13201;51.148;13.738;2023-05-16T02:27:34;12.10;99.90
25250;DHT22;13201;51.148;13.738;2023-05-16T02:30:00;12.10;99.90
25250;DHT22;13201;51.148;13.738;2023-05-16T02:32:26;12.10;99.90
25250;DHT22;13201;51.148;13.738;2023-05-16T02:34:52;12.10;99.90
25250;DHT22;13201;51.148;13.738;2023-05-16T02:37:17;12.10;99.90
25250;DHT22;13201;51.148;13.738;2023-05-16T02:39:43;12.20;99.90
25250;DHT22;13201;51.148;13.738;2023-05-16T02:42:09;12.10;99.90
25250;DHT22;13201;51.148;13.738;2023-05-16T02:44:35;12.30;99.90
25250;DHT22;13201;51.148;13.738;2023-05-16T02:47:00;12.30;99.90
25250;DHT22;13201;51.148;13.738;2023-05-16T02:49:26;12.30;99.90
25250;DHT22;13201;51.148;13.738;2023-05-16T02:51:52;12.50;99.90
25250;DHT22;13201;51.148;13.738;2023-05-16T02:54:17;12.40;99.90
25250;DHT22;13201;51.148;13.738;2023-05-16T02:56:43;12.30;99.90
25250;DHT22;13201;51.148;13.738;2023-05-16T02:59:10;12.30;99.90
25250;DHT22;13201;51.148;13.738;2023-05-16T03:01:36;12.20;99.90
25250;DHT22;13201;51.148;13.738;2023-05-16T03:04:02;12.10;99.90
25250;DHT22;13201;51.148;13.738;2023-05-16T03:06:27;12.20;99.90
25250;DHT22;13201;51.148;13.738;2023-05-16T03:08:54;12.10;99.90
25250;DHT22;13201;51.148;13.738;2023-05-16T03:11:20;12.10;99.90
25250;DHT22;13201;51.148;13.738;2023-05-16T03:13:47;12.00;99.90
25250;DHT22;13201;51.148;13.738;2023-05-16T03:16:13;12.00;99.90
25250;DHT22;13201;51.148;13.738;2023-05-16T03:18:40;12.00;99.90
25250;DHT22;13201;51.148;13.738;2023-05-16T03:21:05;12.00;99.90
25250;DHT22;13201;51.148;13.738;2023-05-16T03:23:31;12.00;99.90
25250;DHT22;13201;51.148;13.738;2023-05-16T03:25:57;12.10;99.90
25250;DHT22;13201;51.148;13.738;2023-05-16T03:28:23;12.10;99.90
25250;DHT22;13201;51.148;13.738;2023-05-16T03:30:48;11.80;99.90
25250;DHT22;13201;51.148;13.738;2023-05-16T03:33:14;11.80;99.90
25250;DHT22;13201;51.148;13.738;2023-05-16T03:35:40;11.90;99.90
25250;DHT22;13201;51.148;13.738;2023-05-16T03:38:06;11.90;99.90
25250;DHT22;13201;51.148;13.738;2023-05-16T03:40:32;12.00;99.90
25250;DHT22;13201;51.148;13.738;2023-05-16T03:42:57;11.90;99.90
25250;DHT22;13201;51.148;13.738;2023-05-16T03:45:23;11.90;99.90
25250;DHT22;13201;51.148;13.738;2023-05-16T03:47:49;11.90;99.90
25250;DHT22;13201;51.148;13.738;2023-05-16T03:50:15;11.90;99.90
25250;DHT22;13201;51.148;13.738;2023-05-16T03:52:41;11.90;99.90
25250;DHT22;13201;51.148;13.738;2023-05-16T03:55:07;12.00;99.90
25250;DHT22;13201;51.148;13.738;2023-05-16T03:57:35;12.20;99.90
25250;DHT22;13201;51.148;13.738;2023-05-16T04:00:00;12.20;99.90
25250;DHT22;13201;51.148;13.738;2023-05-16T04:02:26;12.30;99.90
25250;DHT22;13201;51.148;13.738;2023-05-16T04:04:52;12.30;99.90
25250;DHT22;13201;51.148;13.738;2023-05-16T04:07:17;12.30;99.90
25250;DHT22;13201;51.148;13.738;2023-05-16T04:09:43;12.20;99.90
25250;DHT22;13201;51.148;13.738;2023-05-16T04:12:09;12.30;99.90
25250;DHT22;13201;51.148;13.738;2023-05-16T04:14:35;12.30;99.90
25250;DHT22;13201;51.148;13.738;2023-05-16T04:17:00;12.30;99.90
25250;DHT22;13201;51.148;13.738;2023-05-16T04:19:26;12.30;99.90
25250;DHT22;13201;51.148;13.738;2023-05-16T04:21:52;12.20;99.90
25250;DHT22;13201;51.148;13.738;2023-05-16T04:24:18;12.30;99.90
25250;DHT22;13201;51.148;13.738;2023-05-16T04:26:43;12.30;99.90
25250;DHT22;13201;51.148;13.738;2023-05-16T04:29:09;12.20;99.90
25250;DHT22;13201;51.148;13.738;2023-05-16T04:31:36;12.30;99.90
25250;DHT22;13201;51.148;13.738;2023-05-16T04:34:02;12.20;99.90
25250;DHT22;13201;51.148;13.738;2023-05-16T04:36:28;12.30;99.90
25250;DHT22;13201;51.148;13.738;2023-05-16T04:38:55;12.30;99.90
25250;DHT22;13201;51.148;13.738;2023-05-16T04:41:21;12.20;99.90
25250;DHT22;13201;51.148;13.738;2023-05-16T04:43:48;12.20;99.90
25250;DHT22;13201;51.148;13.738;2023-05-16T04:46:15;12.10;99.90
25250;DHT22;13201;51.148;13.738;2023-05-16T04:48:40;11.90;99.90
25250;DHT22;13201;51.148;13.738;2023-05-16T04:51:06;12.10;99.90
25250;DHT22;13201;51.148;13.738;2023-05-16T04:53:32;11.90;99.90
25250;DHT22;13201;51.148;13.738;2023-05-16T04:55:59;12.00;99.90
25250;DHT22;13201;51.148;13.738;2023-05-16T04:58:25;12.00;99.90
25250;DHT22;13201;51.148;13.738;2023-05-16T05:00:51;11.90;99.90
25250;DHT22;13201;51.148;13.738;2023-05-16T05:03:17;11.90;99.90
25250;DHT22;13201;51.148;13.738;2023-05-16T05:05:43;11.90;99.90
25250;DHT22;13201;51.148;13.738;2023-05-16T05:08:08;12.00;99.90
25250;DHT22;13201;51.148;13.738;2023-05-16T05:10:34;12.10;99.90
25250;DHT22;13201;51.148;13.738;2023-05-16T05:13:00;12.00;99.90
25250;DHT22;13201;51.148;13.738;2023-05-16T05:15:26;12.00;99.90
25250;DHT22;13201;51.148;13.738;2023-05-16T05:17:52;11.90;99.90
25250;DHT22;13201;51.148;13.738;2023-05-16T05:20:18;11.80;99.90
25250;DHT22;13201;51.148;13.738;2023-05-16T05:22:43;11.60;99.90
25250;DHT22;13201;51.148;13.738;2023-05-16T05:25:09;11.60;99.90
25250;DHT22;13201;51.148;13.738;2023-05-16T05:27:35;11.70;99.90
25250;DHT22;13201;51.148;13.738;2023-05-16T05:30:01;11.60;99.90
25250;DHT22;13201;51.148;13.738;2023-05-16T05:32:27;11.50;99.90
25250;DHT22;13201;51.148;13.738;2023-05-16T05:34:53;11.60;99.90
25250;DHT22;13201;51.148;13.738;2023-05-16T05:37:19;11.50;99.90
25250;DHT22;13201;51.148;13.738;2023-05-16T05:39:45;11.60;99.90
25250;DHT22;13201;51.148;13.738;2023-05-16T05:42:11;11.60;99.90
25250;DHT22;13201;51.148;13.738;2023-05-16T05:44:37;11.60;99.90
25250;DHT22;13201;51.148;13.738;2023-05-16T05:47:04;11.40;99.90
25250;DHT22;13201;51.148;13.738;2023-05-16T05:49:30;11.50;99.90
25250;DHT22;13201;51.148;13.738;2023-05-16T05:51:56;11.30;99.90
25250;DHT22;13201;51.148;13.738;2023-05-16T05:54:22;11.10;99.90
25250;DHT22;13201;51.148;13.738;2023-05-16T05:56:48;10.90;99.90
25250;DHT22;13201;51.148;13.738;2023-05-16T05:59:14;11.10;99.90
25250;DHT22;13201;51.148;13.738;2023-05-16T06:01:40;11.00;99.90
25250;DHT22;13201;51.148;13.738;2023-05-16T06:04:05;11.10;99.90
25250;DHT22;13201;51.148;13.738;2023-05-16T06:06:31;11.20;99.90
25250;DHT22;13201;51.148;13.738;2023-05-16T06:08:57;11.20;99.90
25250;DHT22;13201;51.148;13.738;2023-05-16T06:11:23;11.00;99.90
25250;DHT22;13201;51.148;13.738;2023-05-16T06:13:52;11.20;99.90
25250;DHT22;13201;51.148;13.738;2023-05-16T06:16:18;11.10;99.90
25250;DHT22;13201;51.148;13.738;2023-05-16T06:18:44;11.20;99.90
25250;DHT22;13201;51.148;13.738;2023-05-16T06:21:10;11.30;99.90
25250;DHT22;13201;51.148;13.738;2023-05-16T06:23:36;11.10;99.90
25250;DHT22;13201;51.148;13.738;2023-05-16T06:26:02;10.70;99.90
25250;DHT22;13201;51.148;13.738;2023-05-16T06:28:28;10.90;99.90
25250;DHT22;13201;51.148;13.738;2023-05-16T06:30:54;11.20;99.90
25250;DHT22;13201;51.148;13.738;2023-05-16T06:33:20;11.40;99.90
25250;DHT22;13201;51.148;13.738;2023-05-16T06:35:46;11.30;99.90
25250;DHT22;13201;51.148;13.738;2023-05-16T06:38:15;11.10;99.90
25250;DHT22;13201;51.148;13.738;2023-05-16T06:40:40;11.30;99.90
25250;DHT22;13201;51.148;13.738;2023-05-16T06:43:06;11.30;99.90
25250;DHT22;13201;51.148;13.738;2023-05-16T06:45:32;11.30;99.90
25250;DHT22;13201;51.148;13.738;2023-05-16T06:47:58;11.30;99.90
25250;DHT22;13201;51.148;13.738;2023-05-16T06:50:23;11.30;99.90
25250;DHT22;13201;51.148;13.738;2023-05-16T06:52:49;11.30;99.90
25250;DHT22;13201;51.148;13.738;2023-05-16T06:55:15;11.30;99.90
25250;DHT22;13201;51.148;13.738;2023-05-16T06:57:41;11.10;99.90
25250;DHT22;13201;51.148;13.738;2023-05-16T07:00:07;11.10;99.90
25250;DHT22;13201;51.148;13.738;2023-05-16T07:02:33;11.10;99.90
25250;DHT22;13201;51.148;13.738;2023-05-16T07:04:59;11.30;99.90
25250;DHT22;13201;51.148;13.738;2023-05-16T07:07:25;11.10;99.90
25250;DHT22;13201;51.148;13.738;2023-05-16T07:09:51;11.10;99.90
25250;DHT22;13201;51.148;13.738;2023-05-16T07:12:16;11.20;99.90
25250;DHT22;13201;51.148;13.738;2023-05-16T07:14:42;11.30;99.90
25250;DHT22;13201;51.148;13.738;2023-05-16T07:17:08;11.40;99.90
25250;DHT22;13201;51.148;13.738;2023-05-16T07:19:34;11.00;99.90
25250;DHT22;13201;51.148;13.738;2023-05-16T07:22:00;11.20;99.90
25250;DHT22;13201;51.148;13.738;2023-05-16T07:24:26;11.10;99.90
25250;DHT22;13201;51.148;13.738;2023-05-16T07:26:51;11.10;99.90
25250;DHT22;13201;51.148;13.738;2023-05-16T07:29:17;11.10;99.90
25250;DHT22;13201;51.148;13.738;2023-05-16T07:31:43;11.10;99.90
25250;DHT22;13201;51.148;13.738;2023-05-16T07:34:09;11.10;99.90
25250;DHT22;13201;51.148;13.738;2023-05-16T07:36:35;11.00;99.90
25250;DHT22;13201;51.148;13.738;2023-05-16T07:39:02;11.00;99.90
25250;DHT22;13201;51.148;13.738;2023-05-16T07:41:30;10.90;99.90
25250;DHT22;13201;51.148;13.738;2023-05-16T07:43:56;10.70;99.90
25250;DHT22;13201;51.148;13.738;2023-05-16T07:46:22;10.80;99.90
25250;DHT22;13201;51.148;13.738;2023-05-16T07:48:48;10.90;99.90
25250;DHT22;13201;51.148;13.738;2023-05-16T07:51:13;10.90;99.90
25250;DHT22;13201;51.148;13.738;2023-05-16T07:53:39;11.10;99.90
25250;DHT22;13201;51.148;13.738;2023-05-16T07:56:05;11.20;99.90
25250;DHT22;13201;51.148;13.738;2023-05-16T07:58:31;11.10;99.90
25250;DHT22;13201;51.148;13.738;2023-05-16T08:00:57;11.10;99.90
25250;DHT22;13201;51.148;13.738;2023-05-16T08:03:23;11.00;99.90
25250;DHT22;13201;51.148;13.738;2023-05-16T08:05:49;11.10;99.90
25250;DHT22;13201;51.148;13.738;2023-05-16T08:08:16;10.90;99.90
25250;DHT22;13201;51.148;13.738;2023-05-16T08:10:42;10.90;99.90
25250;DHT22;13201;51.148;13.738;2023-05-16T08:13:07;10.90;99.90
25250;DHT22;13201;51.148;13.738;2023-05-16T08:15:34;10.70;99.90
25250;DHT22;13201;51.148;13.738;2023-05-16T08:18:00;10.80;99.90
25250;DHT22;13201;51.148;13.738;2023-05-16T08:20:26;10.70;99.90
25250;DHT22;13201;51.148;13.738;2023-05-16T08:22:52;10.70;99.90
25250;DHT22;13201;51.148;13.738;2023-05-16T08:25:18;10.80;99.90
25250;DHT22;13201;51.148;13.738;2023-05-16T08:27:45;11.00;99.90
25250;DHT22;13201;51.148;13.738;2023-05-16T08:30:11;11.10;99.90
25250;DHT22;13201;51.148;13.738;2023-05-16T08:32:38;10.90;99.90
25250;DHT22;13201;51.148;13.738;2023-05-16T08:35:04;10.90;99.90
25250;DHT22;13201;51.148;13.738;2023-05-16T08:37:30;11.00;99.90
25250;DHT22;13201;51.148;13.738;2023-05-16T08:39:56;11.00;99.90
25250;DHT22;13201;51.148;13.738;2023-05-16T08:42:22;11.00;99.90
25250;DHT22;13201;51.148;13.738;2023-05-16T08:44:48;11.00;99.90
25250;DHT22;13201;51.148;13.738;2023-05-16T08:47:18;11.10;99.90
25250;DHT22;13201;51.148;13.738;2023-05-16T08:49:47;11.10;99.90
25250;DHT22;13201;51.148;13.738;2023-05-16T08:52:12;11.10;99.90
25250;DHT22;13201;51.148;13.738;2023-05-16T08:54:38;11.00;99.90
25250;DHT22;13201;51.148;13.738;2023-05-16T08:57:05;11.00;99.90
25250;DHT22;13201;51.148;13.738;2023-05-16T08:59:34;11.00;99.90
25250;DHT22;13201;51.148;13.738;2023-05-16T09:01:59;11.10;99.90
25250;DHT22;13201;51.148;13.738;2023-05-16T09:04:25;11.10;99.90
25250;DHT22;13201;51.148;13.738;2023-05-16T09:06:52;11.40;99.90
25250;DHT22;13201;51.148;13.738;2023-05-16T09:09:17;11.30;99.90
25250;DHT22;13201;51.148;13.738;2023-05-16T09:11:44;11.30;99.90
25250;DHT22;13201;51.148;13.738;2023-05-16T09:14:11;11.40;99.90
25250;DHT22;13201;51.148;13.738;2023-05-16T09:16:37;11.30;99.90
25250;DHT22;13201;51.148;13.738;2023-05-16T09:19:03;11.20;99.90
25250;DHT22;13201;51.148;13.738;2023-05-16T09:21:33;11.10;99.90
25250;DHT22;13201;51.148;13.738;2023-05-16T09:24:16;11.10;99.90
25250;DHT22;13201;51.148;13.738;2023-05-16T09:26:49;11.30;99.90
25250;DHT22;13201;51.148;13.738;2023-05-16T09:29:16;11.30;99.90
25250;DHT22;13201;51.148;13.738;2023-05-16T09:31:41;11.40;99.90
25250;DHT22;13201;51.148;13.738;2023-05-16T09:34:08;11.40;99.90
25250;DHT22;13201;51.148;13.738;2023-05-16T09:36:35;11.50;99.90
25250;DHT22;13201;51.148;13.738;2023-05-16T09:39:02;11.40;99.90
25250;DHT22;13201;51.148;13.738;2023-05-16T09:41:28;11.30;99.90
25250;DHT22;13201;51.148;13.738;2023-05-16T09:43:57;11.30;99.90
25250;DHT22;13201;51.148;13.738;2023-05-16T09:46:26;11.40;99.90
25250;DHT22;13201;51.148;13.738;2023-05-16T09:48:52;11.20;99.90
25250;DHT22;13201;51.148;13.738;2023-05-16T09:51:21;11.40;99.90
25250;DHT22;13201;51.148;13.738;2023-05-16T09:53:47;11.40;99.90
25250;DHT22;13201;51.148;13.738;2023-05-16T09:56:14;11.40;99.90
25250;DHT22;13201;51.148;13.738;2023-05-16T09:58:40;11.50;99.90
25250;DHT22;13201;51.148;13.738;2023-05-16T10:01:08;11.30;99.90
25250;DHT22;13201;51.148;13.738;2023-05-16T10:03:35;11.40;99.90
25250;DHT22;13201;51.148;13.738;2023-05-16T10:06:02;11.30;99.90
25250;DHT22;13201;51.148;13.738;2023-05-16T10:08:30;11.40;99.90
25250;DHT22;13201;51.148;13.738;2023-05-16T10:10:56;11.50;99.90
25250;DHT22;13201;51.148;13.738;2023-05-16T10:13:23;11.60;99.90
25250;DHT22;13201;51.148;13.738;2023-05-16T10:15:54;11.80;99.90
25250;DHT22;13201;51.148;13.738;2023-05-16T10:18:21;11.70;99.90
25250;DHT22;13201;51.148;13.738;2023-05-16T10:20:49;11.90;99.90
25250;DHT22;13201;51.148;13.738;2023-05-16T10:23:20;11.80;99.90
25250;DHT22;13201;51.148;13.738;2023-05-16T10:25:47;11.60;99.90
25250;DHT22;13201;51.148;13.738;2023-05-16T10:28:14;11.70;99.90
25250;DHT22;13201;51.148;13.738;2023-05-16T10:30:42;11.70;99.90
25250;DHT22;13201;51.148;13.738;2023-05-16T10:33:15;11.80;99.90
25250;DHT22;13201;51.148;13.738;2023-05-16T10:35:42;11.90;99.90
25250;DHT22;13201;51.148;13.738;2023-05-16T10:38:09;11.80;99.90
25250;DHT22;13201;51.148;13.738;2023-05-16T10:40:37;11.90;99.90
25250;DHT22;13201;51.148;13.738;2023-05-16T10:43:04;11.70;99.90
25250;DHT22;13201;51.148;13.738;2023-05-16T10:45:30;11.90;99.90
25250;DHT22;13201;51.148;13.738;2023-05-16T10:48:02;11.80;99.90
25250;DHT22;13201;51.148;13.738;2023-05-16T10:50:43;11.80;99.90
25250;DHT22;13201;51.148;13.738;2023-05-16T10:53:22;12.00;99.90
25250;DHT22;13201;51.148;13.738;2023-05-16T11:06:25;12.60;99.90
25250;DHT22;13201;51.148;13.738;2023-05-16T11:09:19;12.50;99.90
25250;DHT22;13201;51.148;13.738;2023-05-16T11:11:53;12.60;99.90
25250;DHT22;13201;51.148;13.738;2023-05-16T11:14:24;12.70;99.90
25250;DHT22;13201;51.148;13.738;2023-05-16T11:17:00;12.70;99.90
25250;DHT22;13201;51.148;13.738;2023-05-16T11:19:44;12.80;99.90
25250;DHT22;13201;51.148;13.738;2023-05-16T11:22:24;12.80;99.90
25250;DHT22;13201;51.148;13.738;2023-05-16T11:28:02;12.70;99.90
25250;DHT22;13201;51.148;13.738;2023-05-16T11:30:21;12.80;99.90
25250;DHT22;13201;51.148;13.738;2023-05-16T11:32:47;12.80;99.90
25250;DHT22;13201;51.148;13.738;2023-05-16T11:35:15;13.00;99.90
25250;DHT22;13201;51.148;13.738;2023-05-16T11:37:42;13.40;99.90
25250;DHT22;13201;51.148;13.738;2023-05-16T11:40:10;13.50;99.90
25250;DHT22;13201;51.148;13.738;2023-05-16T11:42:44;13.20;99.90
25250;DHT22;13201;51.148;13.738;2023-05-16T11:45:14;13.60;99.90
25250;DHT22;13201;51.148;13.738;2023-05-16T11:47:41;13.60;99.90
25250;DHT22;13201;51.148;13.738;2023-05-16T11:50:13;13.90;99.90
25250;DHT22;13201;51.148;13.738;2023-05-16T11:52:43;13.80;99.90
25250;DHT22;13201;51.148;13.738;2023-05-16T11:55:10;13.80;99.90
25250;DHT22;13201;51.148;13.738;2023-05-16T11:57:38;13.90;99.90
25250;DHT22;13201;51.148;13.738;2023-05-16T12:00:14;13.90;99.90
25250;DHT22;13201;51.148;13.738;2023-05-16T12:02:41;13.90;99.90
25250;DHT22;13201;51.148;13.738;2023-05-16T12:05:08;14.00;99.90
25250;DHT22;13201;51.148;13.738;2023-05-16T12:07:37;14.10;99.90
25250;DHT22;13201;51.148;13.738;2023-05-16T12:10:07;14.10;99.90
25250;DHT22;13201;51.148;13.738;2023-05-16T12:12:37;14.10;99.90
25250;DHT22;13201;51.148;13.738;2023-05-16T12:15:04;14.10;99.90
25250;DHT22;13201;51.148;13.738;2023-05-16T12:17:37;14.30;99.90
25250;DHT22;13201;51.148;13.738;2023-05-16T12:20:05;14.40;99.90
25250;DHT22;13201;51.148;13.738;2023-05-16T12:22:31;14.40;99.90
25250;DHT22;13201;51.148;13.738;2023-05-16T12:25:20;14.50;99.90
25250;DHT22;13201;51.148;13.738;2023-05-16T12:27:46;14.70;99.90
25250;DHT22;13201;51.148;13.738;2023-05-16T12:30:12;14.60;99.90
25250;DHT22;13201;51.148;13.738;2023-05-16T12:32:40;14.40;99.90
25250;DHT22;13201;51.148;13.738;2023-05-16T12:35:06;14.50;99.90
25250;DHT22;13201;51.148;13.738;2023-05-16T12:37:35;14.40;99.90
25250;DHT22;13201;51.148;13.738;2023-05-16T12:40:01;14.20;99.90
25250;DHT22;13201;51.148;13.738;2023-05-16T12:42:28;14.10;99.90
25250;DHT22;13201;51.148;13.738;2023-05-16T12:44:55;14.10;99.90
25250;DHT22;13201;51.148;13.738;2023-05-16T12:47:21;14.10;99.90
25250;DHT22;13201;51.148;13.738;2023-05-16T12:49:47;14.20;99.90
25250;DHT22;13201;51.148;13.738;2023-05-16T12:52:19;14.10;99.90
25250;DHT22;13201;51.148;13.738;2023-05-16T12:54:46;13.90;99.90
25250;DHT22;13201;51.148;13.738;2023-05-16T12:57:12;13.90;99.90
25250;DHT22;13201;51.148;13.738;2023-05-16T12:59:38;13.90;99.90
25250;DHT22;13201;51.148;13.738;2023-05-16T13:02:03;13.90;99.90
25250;DHT22;13201;51.148;13.738;2023-05-16T13:04:29;13.80;99.90
25250;DHT22;13201;51.148;13.738;2023-05-16T13:06:55;14.00;99.90
25250;DHT22;13201;51.148;13.738;2023-05-16T13:09:22;13.90;99.90
25250;DHT22;13201;51.148;13.738;2023-05-16T13:11:48;14.00;99.90
25250;DHT22;13201;51.148;13.738;2023-05-16T13:14:15;14.00;99.90
25250;DHT22;13201;51.148;13.738;2023-05-16T13:16:42;14.00;99.90
25250;DHT22;13201;51.148;13.738;2023-05-16T13:19:08;14.00;99.90
25250;DHT22;13201;51.148;13.738;2023-05-16T13:21:34;14.10;99.90
25250;DHT22;13201;51.148;13.738;2023-05-16T13:23:59;14.00;99.90
25250;DHT22;13201;51.148;13.738;2023-05-16T13:26:25;14.10;99.90
25250;DHT22;13201;51.148;13.738;2023-05-16T13:28:52;14.30;99.90
25250;DHT22;13201;51.148;13.738;2023-05-16T13:31:19;14.40;99.90
25250;DHT22;13201;51.148;13.738;2023-05-16T13:33:45;14.60;99.90
25250;DHT22;13201;51.148;13.738;2023-05-16T13:36:11;14.50;99.90
25250;DHT22;13201;51.148;13.738;2023-05-16T13:38:37;14.50;99.90
25250;DHT22;13201;51.148;13.738;2023-05-16T13:41:03;14.20;99.90
25250;DHT22;13201;51.148;13.738;2023-05-16T13:43:28;14.20;99.90
25250;DHT22;13201;51.148;13.738;2023-05-16T13:45:54;14.10;99.90
25250;DHT22;13201;51.148;13.738;2023-05-16T13:48:20;14.00;99.90
25250;DHT22;13201;51.148;13.738;2023-05-16T13:50:46;14.10;99.90
25250;DHT22;13201;51.148;13.738;2023-05-16T13:53:12;14.10;99.90
25250;DHT22;13201;51.148;13.738;2023-05-16T13:55:37;13.90;99.90
25250;DHT22;13201;51.148;13.738;2023-05-16T13:58:03;14.00;99.90
25250;DHT22;13201;51.148;13.738;2023-05-16T14:00:29;14.00;99.90
25250;DHT22;13201;51.148;13.738;2023-05-16T14:02:55;13.90;99.90
25250;DHT22;13201;51.148;13.738;2023-05-16T14:05:21;14.00;99.90
25250;DHT22;13201;51.148;13.738;2023-05-16T14:07:47;13.70;99.90
25250;DHT22;13201;51.148;13.738;2023-05-16T14:10:13;13.60;99.90
25250;DHT22;13201;51.148;13.738;2023-05-16T14:12:38;13.60;99.90
25250;DHT22;13201;51.148;13.738;2023-05-16T14:15:05;13.50;99.90
25250;DHT22;13201;51.148;13.738;2023-05-16T14:17:31;13.50;99.90
25250;DHT22;13201;51.148;13.738;2023-05-16T14:19:57;13.50;99.90
25250;DHT22;13201;51.148;13.738;2023-05-16T14:22:23;13.40;99.90
25250;DHT22;13201;51.148;13.738;2023-05-16T14:24:48;13.40;99.90
25250;DHT22;13201;51.148;13.738;2023-05-16T14:27:14;13.60;99.90
25250;DHT22;13201;51.148;13.738;2023-05-16T14:29:41;13.30;99.90
25250;DHT22;13201;51.148;13.738;2023-05-16T14:32:08;13.40;99.90
25250;DHT22;13201;51.148;13.738;2023-05-16T14:34:35;13.50;99.90
25250;DHT22;13201;51.148;13.738;2023-05-16T14:37:01;13.50;99.90
25250;DHT22;13201;51.148;13.738;2023-05-16T14:39:26;13.40;99.90
25250;DHT22;13201;51.148;13.738;2023-05-16T14:41:52;13.40;99.90
25250;DHT22;13201;51.148;13.738;2023-05-16T14:44:18;13.50;99.90
25250;DHT22;13201;51.148;13.738;2023-05-16T14:46:46;13.30;99.90
25250;DHT22;13201;51.148;13.738;2023-05-16T14:49:12;13.10;99.90
25250;DHT22;13201;51.148;13.738;2023-05-16T14:51:37;13.30;99.90
25250;DHT22;13201;51.148;13.738;2023-05-16T14:54:03;13.20;99.90
25250;DHT22;13201;51.148;13.738;2023-05-16T14:56:30;13.20;99.90
25250;DHT22;13201;51.148;13.738;2023-05-16T14:58:56;13.30;99.90
25250;DHT22;13201;51.148;13.738;2023-05-16T15:01:22;13.30;99.90
25250;DHT22;13201;51.148;13.738;2023-05-16T15:03:48;13.40;99.90
25250;DHT22;13201;51.148;13.738;2023-05-16T15:06:13;13.40;99.90
25250;DHT22;13201;51.148;13.738;2023-05-16T15:08:39;13.50;99.90
25250;DHT22;13201;51.148;13.738;2023-05-16T15:11:05;13.60;99.90
25250;DHT22;13201;51.148;13.738;2023-05-16T15:13:31;13.50;99.90
25250;DHT22;13201;51.148;13.738;2023-05-16T15:15:57;13.40;99.90
25250;DHT22;13201;51.148;13.738;2023-05-16T15:18:23;13.40;99.90
25250;DHT22;13201;51.148;13.738;2023-05-16T15:20:48;13.30;99.90
25250;DHT22;13201;51.148;13.738;2023-05-16T15:23:16;13.40;99.90
25250;DHT22;13201;51.148;13.738;2023-05-16T15:25:42;13.30;99.90
25250;DHT22;13201;51.148;13.738;2023-05-16T15:28:08;13.10;99.90
25250;DHT22;13201;51.148;13.738;2023-05-16T15:30:33;13.20;99.90
25250;DHT22;13201;51.148;13.738;2023-05-16T15:32:59;13.30;99.90
25250;DHT22;13201;51.148;13.738;2023-05-16T15:35:25;13.40;99.90
25250;DHT22;13201;51.148;13.738;2023-05-16T15:37:51;13.50;99.90
25250;DHT22;13201;51.148;13.738;2023-05-16T15:40:17;13.70;99.90
25250;DHT22;13201;51.148;13.738;2023-05-16T15:42:43;13.90;99.90
25250;DHT22;13201;51.148;13.738;2023-05-16T15:45:10;13.90;99.90
25250;DHT22;13201;51.148;13.738;2023-05-16T15:47:36;13.90;99.90
25250;DHT22;13201;51.148;13.738;2023-05-16T15:50:02;14.20;99.90